Home > Products > Valid Products > TAF

000
FTUS44 KLIX 042300
TAFBTR
TAF
KBTR 042330Z 0500/0524 19010G15KT P6SM VCSH BKN050
     FM050300 20008KT P6SM VCSH BKN015
     FM050800 35010G15KT 5SM -SHRA OVC005
     FM051400 34015G20KT 5SM -SHRA OVC005=



000
FTUS44 KLIX 042300
TAFNEW
TAF
KNEW 042330Z 0500/0524 20015KT P6SM SCT030
     FM050300 19009KT P6SM BKN015
     FM050600 20008KT P6SM OVC005
     FM051100 35010G15KT 5SM -SHRA OVC005
     FM051400 36017G23KT 5SM -SHRA BKN007=



000
FTUS44 KLIX 042300
TAFMCB
TAF
KMCB 042330Z 0500/0524 20009KT P6SM VCSH BKN050
     FM050300 21009KT P6SM VCSH BKN020
     FM050600 27008KT 5SM -SHRA OVC005
     FM050900 35012KT 3SM SHRA OVC005
     FM051400 35015G20KT 5SM -RA OVC005=



000
FTUS44 KLIX 042300
TAFMSY
TAF
KMSY 042330Z 0500/0524 19010KT P6SM SCT050
     FM050400 19007KT P6SM VCSH BKN009
     FM051100 35010G15KT 5SM -SHRA OVC005
     FM051400 36017G23KT 5SM -SHRA BKN007=



000
FTUS44 KLIX 042300
TAFGPT
TAF
KGPT 042330Z 0500/0524 17005KT P6SM VCSH BKN030
      TEMPO 0500/0503 5SM BR
     FM050300 18009KT P6SM VCSH BKN009
     FM051200 29007KT 5SM -RA BKN005
     FM051500 35017G23KT 3SM -RA BKN008=



000
FTUS44 KLIX 042300
TAFNEW
TAF
KNEW 042330Z 0500/0524 20015KT P6SM SCT030
     FM050300 19009KT P6SM BKN015
     FM050600 20008KT P6SM OVC005
     FM051100 35010G15KT 5SM -SHRA OVC005
     FM051400 36017G23KT 5SM -SHRA BKN007=



000
FTUS44 KLIX 041700
TAFNEW
TAF
KNEW 041740Z 0418/0518 16012KT P6SM SCT028
     FM050300 19008KT 5SM BR BKN008
     FM050600 20009KT 5SM BR VCSH BKN007
     FM051100 30011KT 5SM -SHRA BKN003=



000
FTUS44 KLIX 041700
TAFBTR
TAF
KBTR 041740Z 0418/0518 19012G20KT P6SM BKN025
     FM050000 19010KT P6SM VCSH BKN020
     FM050600 21005KT 3SM -SHRA BKN007
     FM051500 35013KT 5SM -RA OVC008=



000
FTUS44 KLIX 041700
TAFMSY
TAF
KMSY 041740Z 0418/0518 19012KT P6SM SCT022
     FM050400 19007KT 4SM BR BKN008
     FM050900 26009KT 5SM BR VCSH BKN003
     FM051100 31011KT 5SM -SHRA BKN007=



000
FTUS44 KLIX 041700
TAFNEW
TAF
KNEW 041740Z 0418/0518 16012KT P6SM SCT028
     FM050300 19008KT 5SM BR BKN008
     FM050600 20009KT 5SM BR VCSH BKN007
     FM051100 30011KT 5SM -SHRA BKN003=



000
FTUS44 KLIX 041700
TAFMCB
TAF
KMCB 041740Z 0418/0518 20009KT P6SM BKN025
     FM050000 19005KT P6SM VCSH BKN020
     FM050600 VRB03KT 3SM -SHRA OVC007
     FM051200 35013KT 4SM -RA OVC008=



000
FTUS44 KLIX 041700
TAFGPT
TAF
KGPT 041740Z 0418/0518 16014KT P6SM BKN050
     FM050200 18010KT 6SM BR BKN008
     FM050900 24009KT 5SM -SHRA BKN003
     FM051500 32014KT 5SM -RA BKN008=



000
FTUS44 KLIX 041700
TAFNEW
TAF
KNEW 041740Z 0418/0518 16012KT P6SM SCT028
     FM050300 19008KT 5SM BR BKN008
     FM050600 20009KT 5SM BR VCSH BKN007
     FM051100 30011KT 5SM -SHRA BKN003=



000
FTUS44 KLIX 041700
TAFNEW
TAF
KNEW 041740Z 0418/0518 16012KT P6SM SCT028
     FM050300 19008KT 5SM BR BKN008
     FM050600 20009KT 5SM BR VCSH BKN007
     FM051100 30011KT 5SM -SHRA BKN003=



000
FTUS44 KLIX 041700
TAFBTR
TAF
KBTR 041740Z 0418/0518 19012G20KT P6SM BKN025
     FM050000 19010KT P6SM VCSH BKN020
     FM050600 21005KT 3SM -SHRA BKN007
     FM051500 35013KT 5SM -RA OVC008=



000
FTUS44 KLIX 041700
TAFGPT
TAF
KGPT 041740Z 0418/0518 16014KT P6SM BKN050
     FM050200 18010KT 6SM BR BKN008
     FM050900 24009KT 5SM -SHRA BKN003
     FM051500 32014KT 5SM -RA BKN008=



000
FTUS44 KLIX 041700
TAFMCB
TAF
KMCB 041740Z 0418/0518 20009KT P6SM BKN025
     FM050000 19005KT P6SM VCSH BKN020
     FM050600 VRB03KT 3SM -SHRA OVC007
     FM051200 35013KT 4SM -RA OVC008=



000
FTUS44 KLIX 041700
TAFMSY
TAF
KMSY 041740Z 0418/0518 19012KT P6SM SCT022
     FM050400 19007KT 4SM BR BKN008
     FM050900 26009KT 5SM BR VCSH BKN003
     FM051100 31011KT 5SM -SHRA BKN007=



000
FTUS44 KLIX 041400 AAD
TAFNEW
TAF AMD
KNEW 041459Z 0415/0512 17007KT P6SM FEW022 SCT028 BKN035
     FM041700 17011KT P6SM SCT025
     FM051000 28010KT 5SM SHRA BKN008=



000
FTUS44 KLIX 041300 AAC
TAFNEW
TAF AMD
KNEW 041352Z 0414/0512 10003KT 1 1/2SM BR BKN026 BKN035
      TEMPO 0414/0415 3SM BR BKN026
     FM041500 15006KT 5SM BR BKN030
     FM041700 17011KT P6SM SCT025
     FM051000 28010KT 5SM SHRA BKN008=



000
FTUS44 KLIX 041300 AAC
TAFNEW
TAF AMD
KNEW 041352Z 0414/0512 10003KT 1 1/2SM BR BKN026 BKN035
      TEMPO 0414/0415 3SM BR BKN026
     FM041500 15006KT 5SM BR BKN030
     FM041700 17011KT P6SM SCT025
     FM051000 28010KT 5SM SHRA BKN008=



000
FTUS44 KLIX 041300 AAC
TAFNEW
TAF AMD
KNEW 041352Z 0414/0512 10003KT 1 1/2SM BR BKN026 BKN035
      TEMPO 0414/0415 3SM BR BKN026
     FM041500 15006KT 5SM BR BKN030
     FM041700 17011KT P6SM SCT025
     FM051000 28010KT 5SM SHRA BKN008=



000
FTUS44 KLIX 041300 AAC
TAFNEW
TAF AMD
KNEW 041352Z 0414/0512 10003KT 1 1/2SM BR BKN026 BKN035
      TEMPO 0414/0415 3SM BR BKN026
     FM041500 15006KT 5SM BR BKN030
     FM041700 17011KT P6SM SCT025
     FM051000 28010KT 5SM SHRA BKN008=



000
FTUS44 KLIX 041200 AAB
TAFNEW
TAF AMD
KNEW 041250Z 0413/0512 17007KT 5SM BR BKN025
      TEMPO 0413/0414 1/2SM FG
     FM041700 17011KT P6SM SCT025
     FM051000 28010KT 5SM SHRA BKN008=



000
FTUS44 KLIX 041200 AAB
TAFNEW
TAF AMD
KNEW 041250Z 0413/0512 17007KT 5SM BR BKN025
      TEMPO 0413/0414 1/2SM FG
     FM041700 17011KT P6SM SCT025
     FM051000 28010KT 5SM SHRA BKN008=



000
FTUS44 KLIX 041200 AAB
TAFNEW
TAF AMD
KNEW 041250Z 0413/0512 17007KT 5SM BR BKN025
      TEMPO 0413/0414 1/2SM FG
     FM041700 17011KT P6SM SCT025
     FM051000 28010KT 5SM SHRA BKN008=



000
FTUS44 KLIX 041200 AAB
TAFNEW
TAF AMD
KNEW 041250Z 0413/0512 17007KT 5SM BR BKN025
      TEMPO 0413/0414 1/2SM FG
     FM041700 17011KT P6SM SCT025
     FM051000 28010KT 5SM SHRA BKN008=



000
FTUS44 KLIX 041200 AAA
TAFNEW
TAF AMD
KNEW 041216Z 0412/0512 17007KT 5SM BR BKN025
     FM041700 17011KT P6SM SCT025
     FM051000 28010KT 5SM SHRA BKN008=



000
FTUS44 KLIX 041200 AAA
TAFNEW
TAF AMD
KNEW 041216Z 0412/0512 17007KT 5SM BR BKN025
     FM041700 17011KT P6SM SCT025
     FM051000 28010KT 5SM SHRA BKN008=



000
FTUS44 KLIX 041100
TAFNEW
TAF
KNEW 041122Z 0412/0512 17007KT 5SM BR BKN025
      TEMPO 0412/0414 1SM BR
     FM041700 17011KT P6SM SCT025
     FM051000 28010KT 5SM SHRA BKN008=



000
FTUS44 KLIX 041100
TAFMCB
TAF
KMCB 041122Z 0412/0512 18005KT 2SM BR OVC002
     FM041500 19007KT P6SM BKN010
     FM041700 19009KT P6SM SCT020
     FM050200 VRB03KT 2SM SHRA BKN035
     FM050600 VRB03KT 2SM RA OVC008
     FM050900 31008KT 2SM RA OVC008=



000
FTUS44 KLIX 041100
TAFGPT
TAF
KGPT 041122Z 0412/0512 17008KT 1SM BR OVC002
     FM041500 17009KT P6SM BKN008
     FM042200 17010KT P6SM SCT020
     FM050600 20009KT 5SM SHRA BKN050
     FM050900 24009KT 5SM SHRA BKN008
     FM051100 28009KT 5SM SHRA BKN008=



000
FTUS44 KLIX 041100
TAFBTR
TAF
KBTR 041122Z 0412/0512 17005KT 4SM BR OVC004
     FM041500 18008KT P6SM BKN020
     FM041700 19009KT P6SM SCT025
     FM050600 21005KT 2SM RA BKN008
     FM050900 28009KT 2SM RA OVC008=



000
FTUS44 KLIX 041100
TAFMSY
TAF
KMSY 041122Z 0412/0512 17006KT P6SM SCT025 BKN050
      TEMPO 0412/0414 5SM BR BKN025 OVC050
     FM041700 18011KT P6SM SCT025
     FM050900 26009KT 5SM SHRA BKN008
     FM051100 31011KT 5SM SHRA BKN008=



000
FTUS44 KLIX 041100
TAFMCB
TAF
KMCB 041122Z 0412/0512 18005KT 2SM BR OVC002
     FM041500 19007KT P6SM BKN010
     FM041700 19009KT P6SM SCT020
     FM050200 VRB03KT 2SM SHRA BKN035
     FM050600 VRB03KT 2SM RA OVC008
     FM050900 31008KT 2SM RA OVC008=



000
FTUS44 KLIX 041100
TAFBTR
TAF
KBTR 041122Z 0412/0512 17005KT 4SM BR OVC004
     FM041500 18008KT P6SM BKN020
     FM041700 19009KT P6SM SCT025
     FM050600 21005KT 2SM RA BKN008
     FM050900 28009KT 2SM RA OVC008=



000
FTUS44 KLIX 041100
TAFNEW
TAF
KNEW 041122Z 0412/0512 17007KT 5SM BR BKN025
      TEMPO 0412/0414 1SM BR
     FM041700 17011KT P6SM SCT025
     FM051000 28010KT 5SM SHRA BKN008=



000
FTUS44 KLIX 041100
TAFMSY
TAF
KMSY 041122Z 0412/0512 17006KT P6SM SCT025 BKN050
      TEMPO 0412/0414 5SM BR BKN025 OVC050
     FM041700 18011KT P6SM SCT025
     FM050900 26009KT 5SM SHRA BKN008
     FM051100 31011KT 5SM SHRA BKN008=



000
FTUS44 KLIX 041100
TAFGPT
TAF
KGPT 041122Z 0412/0512 17008KT 1SM BR OVC002
     FM041500 17009KT P6SM BKN008
     FM042200 17010KT P6SM SCT020
     FM050600 20009KT 5SM SHRA BKN050
     FM050900 24009KT 5SM SHRA BKN008
     FM051100 28009KT 5SM SHRA BKN008=



000
FTUS44 KLIX 041000 AAB
TAFGPT
TAF AMD
KGPT 041024Z 0410/0506 15007KT 1/4SM FG OVC002
     FM041400 16007KT 3SM BR BKN008
     FM041800 17009KT P6SM VCTS BKN010CB
     FM042100 17010KT P6SM VCTS BKN020CB
     FM050100 18010KT P6SM BKN035=



000
FTUS44 KLIX 041000 AAB
TAFGPT
TAF AMD
KGPT 041024Z 0410/0506 15007KT 1/4SM FG OVC002
     FM041400 16007KT 3SM BR BKN008
     FM041800 17009KT P6SM VCTS BKN010CB
     FM042100 17010KT P6SM VCTS BKN020CB
     FM050100 18010KT P6SM BKN035=



000
FTUS44 KLIX 041000 AAA
TAFMSY
TAF AMD
KMSY 041006Z 0410/0506 16006KT P6SM SCT015 BKN050
      TEMPO 0410/0413 5SM BR BKN015
     FM041800 18010KT P6SM VCTS BKN025CB
     FM042200 18011KT P6SM VCTS BKN035CB
     FM050000 18011KT P6SM BKN050
     FM050500 20008KT P6SM BKN025=



000
FTUS44 KLIX 040900 AAC
TAFNEW
TAF AMD
KNEW 040957Z 0410/0506 16007KT P6SM BKN030
      TEMPO 0410/0413 1/4SM FG
     FM041500 17009KT P6SM BKN008
     FM041800 17011KT P6SM VCTS BKN025CB
     FM042300 18012KT P6SM VCTS BKN040CB
     FM050000 18012KT P6SM BKN050=



000
FTUS44 KLIX 040900 AAC
TAFNEW
TAF AMD
KNEW 040957Z 0410/0506 16007KT P6SM BKN030
      TEMPO 0410/0413 1/4SM FG
     FM041500 17009KT P6SM BKN008
     FM041800 17011KT P6SM VCTS BKN025CB
     FM042300 18012KT P6SM VCTS BKN040CB
     FM050000 18012KT P6SM BKN050=



000
FTUS44 KLIX 040900 AAB
TAFNEW
TAF AMD
KNEW 040929Z 0409/0506 16007KT P6SM BKN030
      TEMPO 0409/0413 1SM BR
     FM041500 17009KT P6SM BKN008
     FM041800 17011KT P6SM VCTS BKN025CB
     FM042300 18012KT P6SM VCTS BKN040CB
     FM050000 18012KT P6SM BKN050=



000
FTUS44 KLIX 040900 AAB
TAFNEW
TAF AMD
KNEW 040929Z 0409/0506 16007KT P6SM BKN030
      TEMPO 0409/0413 1SM BR
     FM041500 17009KT P6SM BKN008
     FM041800 17011KT P6SM VCTS BKN025CB
     FM042300 18012KT P6SM VCTS BKN040CB
     FM050000 18012KT P6SM BKN050=



000
FTUS44 KLIX 040900 AAA
TAFNEW
TAF AMD
KNEW 040916Z 0409/0506 16007KT P6SM BKN030
     FM041500 17009KT P6SM BKN008
     FM041800 17011KT P6SM VCTS BKN025CB
     FM042300 18012KT P6SM VCTS BKN040CB
     FM050000 18012KT P6SM BKN050=



000
FTUS44 KLIX 040900 AAA
TAFNEW
TAF AMD
KNEW 040916Z 0409/0506 16007KT P6SM BKN030
     FM041500 17009KT P6SM BKN008
     FM041800 17011KT P6SM VCTS BKN025CB
     FM042300 18012KT P6SM VCTS BKN040CB
     FM050000 18012KT P6SM BKN050=



000
FTUS44 KLIX 040600 AAA
TAFGPT
TAF AMD
KGPT 040605Z 0406/0506 15007KT 1SM BR OVC002
     FM041400 16007KT 3SM BR BKN008
     FM041800 17009KT P6SM VCTS BKN010CB
     FM042100 17010KT P6SM VCTS BKN020CB
     FM050100 18010KT P6SM BKN035=



000
FTUS44 KLIX 040500
TAFGPT
TAF
KGPT 040520Z 0406/0506 15007KT 1SM BR OVC001
     FM041400 16007KT 3SM BR BKN008
     FM041800 17009KT P6SM VCTS BKN010CB
     FM042100 17010KT P6SM VCTS BKN020CB
     FM050100 18010KT P6SM BKN035=



000
FTUS44 KLIX 040500
TAFMCB
TAF
KMCB 040520Z 0406/0506 18004KT P6SM BKN008
      TEMPO 0408/0412 1SM BR
     FM041800 19009KT P6SM VCTS BKN020CB
     FM042100 19008KT P6SM VCTS BKN025CB
     FM050000 19007KT 2SM SHRA BKN035
     FM050500 25006KT 2SM SHRA OVC010=



000
FTUS44 KLIX 040500
TAFBTR
TAF
KBTR 040520Z 0406/0506 16005KT P6SM BKN015
      TEMPO 0409/0413 1SM BR
     FM041900 19010KT P6SM VCTS BKN025CB
     FM050000 19009KT 5SM SHRA BKN025
     FM050500 23005KT 5SM SHRA OVC010=



000
FTUS44 KLIX 040500
TAFNEW
TAF
KNEW 040520Z 0406/0506 16007KT P6SM BKN030
      TEMPO 0409/0413 1SM BR BKN003
     FM041500 17009KT P6SM BKN008
     FM041800 17011KT P6SM VCTS BKN025CB
     FM042300 18012KT P6SM VCTS BKN040CB
     FM050000 18012KT P6SM BKN050=



000
FTUS44 KLIX 040500
TAFNEW
TAF
KNEW 040520Z 0406/0506 16007KT P6SM BKN030
      TEMPO 0409/0413 1SM BR BKN003
     FM041500 17009KT P6SM BKN008
     FM041800 17011KT P6SM VCTS BKN025CB
     FM042300 18012KT P6SM VCTS BKN040CB
     FM050000 18012KT P6SM BKN050=



000
FTUS44 KLIX 040500
TAFMSY
TAF
KMSY 040520Z 0406/0506 16006KT P6SM BKN015
      TEMPO 0409/0413 1SM BR
     FM041800 18010KT P6SM VCTS BKN025CB
     FM042200 18011KT P6SM VCTS BKN035CB
     FM050000 18011KT P6SM BKN050
     FM050500 20008KT P6SM BKN025=



000
FTUS44 KLIX 040300 AAA
TAFBTR
TAF AMD
KBTR 040319Z 0403/0424 15005KT P6SM SCT020
      TEMPO 0404/0406 4SM BR BKN020
     FM040600 15003KT 1 1/2SM BR OVC004
     FM040700 16003KT 1/2SM FG BKN003
     FM041500 16004KT P6SM BKN025=



000
FTUS44 KLIX 040300 AAA
TAFBTR
TAF AMD
KBTR 040319Z 0403/0424 15005KT P6SM SCT020
      TEMPO 0404/0406 4SM BR BKN020
     FM040600 15003KT 1 1/2SM BR OVC004
     FM040700 16003KT 1/2SM FG BKN003
     FM041500 16004KT P6SM BKN025=



000
FTUS44 KLIX 040300 AAA
TAFMCB
TAF AMD
KMCB 040318Z 0403/0424 18005KT P6SM SCT015 BKN022
      TEMPO 0404/0406 4SM BR BKN015
     FM040600 17005KT 1 1/2SM BR BKN004
     FM040700 17003KT 1/2SM FG BKN003
     FM041500 18006KT P6SM BKN015=



000
FTUS44 KLIX 040300 AAA
TAFMCB
TAF AMD
KMCB 040318Z 0403/0424 18005KT P6SM SCT015 BKN022
      TEMPO 0404/0406 4SM BR BKN015
     FM040600 17005KT 1 1/2SM BR BKN004
     FM040700 17003KT 1/2SM FG BKN003
     FM041500 18006KT P6SM BKN015=



000
FTUS44 KLIX 040300 AAA
TAFMSY
TAF AMD
KMSY 040315Z 0403/0424 17008KT P6SM BKN030
     FM040600 16007KT 3SM BR BKN003
     FM040800 16006KT 1/2SM FG BKN003
     FM041600 17007KT P6SM BKN020=



000
FTUS44 KLIX 040300 AAA
TAFNEW
TAF AMD
KNEW 040314Z 0403/0424 14007KT P6SM BKN030
     FM040600 16008KT 4SM BR BKN004
     FM040800 16006KT 1SM BR BKN003
     FM041600 17009KT P6SM BKN008=



000
FTUS44 KLIX 040300 AAA
TAFNEW
TAF AMD
KNEW 040314Z 0403/0424 14007KT P6SM BKN030
     FM040600 16008KT 4SM BR BKN004
     FM040800 16006KT 1SM BR BKN003
     FM041600 17009KT P6SM BKN008=



000
FTUS44 KLIX 032300
TAFBTR
TAF
KBTR 032338Z 0400/0424 18013KT P6SM FEW025
     FM040400 15003KT 3SM BR OVC002
     FM040600 16003KT 1/2SM FG BKN003
     FM041500 16004KT P6SM BKN025=



000
FTUS44 KLIX 032300
TAFNEW
TAF
KNEW 032338Z 0400/0424 16017G24KT P6SM FEW040
     FM040300 16008KT 4SM BR BKN003
     FM040600 16006KT 2SM BR BKN003
     FM041600 17009KT P6SM BKN008=



000
FTUS44 KLIX 032300
TAFGPT
TAF
KGPT 032338Z 0400/0424 14011KT P6SM FEW035
     FM040300 15004KT 3SM BR BKN003
     FM040600 15003KT 1/2SM FG BKN003
     FM041600 17008KT P6SM BKN008=



000
FTUS44 KLIX 032300
TAFNEW
TAF
KNEW 032338Z 0400/0424 16017G24KT P6SM FEW040
     FM040300 16008KT 4SM BR BKN003
     FM040600 16006KT 2SM BR BKN003
     FM041600 17009KT P6SM BKN008=



000
FTUS44 KLIX 032300
TAFMCB
TAF
KMCB 032338Z 0400/0424 18009KT P6SM VCSH BKN020
     FM040300 17005KT 3SM BR BKN003
     FM040600 17003KT 1/2SM FG BKN003
     FM041500 18006KT P6SM BKN015=



000
FTUS44 KLIX 032300
TAFMSY
TAF
KMSY 032338Z 0400/0424 17012G21KT P6SM BKN035
     FM040400 16007KT 3SM BR BKN003
     FM040600 16006KT 1/2SM FG BKN003
     FM041600 17007KT P6SM BKN020=



000
FTUS44 KLIX 032300
TAFNEW
TAF
KNEW 032338Z 0400/0424 16017G24KT P6SM FEW040
     FM040300 16008KT 4SM BR BKN003
     FM040600 16006KT 2SM BR BKN003
     FM041600 17009KT P6SM BKN008=



000
FTUS44 KLIX 032300
TAFMCB
TAF
KMCB 032338Z 0400/0424 18009KT P6SM VCSH BKN020
     FM040300 17005KT 3SM BR BKN003
     FM040600 17003KT 1/2SM FG BKN003
     FM041500 18006KT P6SM BKN015=



000
FTUS44 KLIX 032300
TAFNEW
TAF
KNEW 032338Z 0400/0424 16017G24KT P6SM FEW040
     FM040300 16008KT 4SM BR BKN003
     FM040600 16006KT 2SM BR BKN003
     FM041600 17009KT P6SM BKN008=



000
FTUS44 KLIX 032300
TAFMSY
TAF
KMSY 032338Z 0400/0424 17012G21KT P6SM BKN035
     FM040400 16007KT 3SM BR BKN003
     FM040600 16006KT 1/2SM FG BKN003
     FM041600 17007KT P6SM BKN020=



000
FTUS44 KLIX 032300
TAFGPT
TAF
KGPT 032338Z 0400/0424 14011KT P6SM FEW035
     FM040300 15004KT 3SM BR BKN003
     FM040600 15003KT 1/2SM FG BKN003
     FM041600 17008KT P6SM BKN008=



000
FTUS44 KLIX 032300
TAFBTR
TAF
KBTR 032338Z 0400/0424 18013KT P6SM FEW025
     FM040400 15003KT 3SM BR OVC002
     FM040600 16003KT 1/2SM FG BKN003
     FM041500 16004KT P6SM BKN025=



000
FTUS44 KLIX 032000 AAA
TAFBTR
TAF AMD
KBTR 032004Z 0320/0418 17016G20KT P6SM VCSH BKN015
     FM040100 16009KT 3SM BR OVC009
     FM040400 17003KT 1/4SM FG OVC002
     FM041600 18008KT P6SM BKN008=



000
FTUS44 KLIX 032000 AAA
TAFMCB
TAF AMD
KMCB 032004Z 0320/0418 18008KT P6SM VCSH BKN025
     FM040100 17005KT 2SM BR OVC008
     FM040400 00000KT 1/4SM FG OVC001
     FM041600 19007KT P6SM OVC008=



000
FTUS44 KLIX 032000 AAA
TAFMCB
TAF AMD
KMCB 032004Z 0320/0418 18008KT P6SM VCSH BKN025
     FM040100 17005KT 2SM BR OVC008
     FM040400 00000KT 1/4SM FG OVC001
     FM041600 19007KT P6SM OVC008=



000
FTUS44 KLIX 031700
TAFGPT
TAF
KGPT 031740Z 0318/0418 13011KT P6SM BKN025
     FM040100 14010KT 2SM BR OVC007
     FM040400 15003KT 1/4SM FG OVC002
     FM041600 17009KT P6SM BKN008=



000
FTUS44 KLIX 031700
TAFMSY
TAF
KMSY 031740Z 0318/0418 17013KT P6SM BKN020
     FM040100 16008KT 3SM BR BKN005
     FM040400 16003KT 1/4SM FG OVC002
     FM041600 17008KT P6SM BKN015=



000
FTUS44 KLIX 031700
TAFMCB
TAF
KMCB 031740Z 0318/0418 19008KT P6SM BKN015
     FM040100 17005KT 2SM BR OVC008
     FM040400 00000KT 1/4SM FG OVC001
     FM041600 19007KT P6SM OVC008=



000
FTUS44 KLIX 031700
TAFNEW
TAF
KNEW 031740Z 0318/0418 15013KT P6SM BKN025
     FM040200 16008KT 6SM BR OVC007
     FM040400 16003KT 1/4SM FG OVC003
     FM041600 17009KT P6SM BKN008=



000
FTUS44 KLIX 031700
TAFMSY
TAF
KMSY 031740Z 0318/0418 17013KT P6SM BKN020
     FM040100 16008KT 3SM BR BKN005
     FM040400 16003KT 1/4SM FG OVC002
     FM041600 17008KT P6SM BKN015=



000
FTUS44 KLIX 031700
TAFGPT
TAF
KGPT 031740Z 0318/0418 13011KT P6SM BKN025
     FM040100 14010KT 2SM BR OVC007
     FM040400 15003KT 1/4SM FG OVC002
     FM041600 17009KT P6SM BKN008=



000
FTUS44 KLIX 031700
TAFMCB
TAF
KMCB 031740Z 0318/0418 19008KT P6SM BKN015
     FM040100 17005KT 2SM BR OVC008
     FM040400 00000KT 1/4SM FG OVC001
     FM041600 19007KT P6SM OVC008=



000
FTUS44 KLIX 031700
TAFBTR
TAF
KBTR 031740Z 0318/0418 15009KT P6SM BKN020
     FM040100 16009KT 3SM BR OVC009
     FM040400 17003KT 1/4SM FG OVC002
     FM041600 18008KT P6SM BKN008=



000
FTUS44 KLIX 031700
TAFNEW
TAF
KNEW 031740Z 0318/0418 15013KT P6SM BKN025
     FM040200 16008KT 6SM BR OVC007
     FM040400 16003KT 1/4SM FG OVC003
     FM041600 17009KT P6SM BKN008=



000
FTUS44 KLIX 031700
TAFNEW
TAF
KNEW 031740Z 0318/0418 15013KT P6SM BKN025
     FM040200 16008KT 6SM BR OVC007
     FM040400 16003KT 1/4SM FG OVC003
     FM041600 17009KT P6SM BKN008=



000
FTUS44 KLIX 031700
TAFNEW
TAF
KNEW 031740Z 0318/0418 15013KT P6SM BKN025
     FM040200 16008KT 6SM BR OVC007
     FM040400 16003KT 1/4SM FG OVC003
     FM041600 17009KT P6SM BKN008=



000
FTUS44 KLIX 031700
TAFBTR
TAF
KBTR 031740Z 0318/0418 15009KT P6SM BKN020
     FM040100 16009KT 3SM BR OVC009
     FM040400 17003KT 1/4SM FG OVC002
     FM041600 18008KT P6SM BKN008=



000
FTUS44 KLIX 031600 AAA
TAFGPT
TAF AMD
KGPT 031605Z 0316/0412 13010KT P6SM BKN022
     FM031900 16009KT P6SM BKN030
     FM032100 15009KT P6SM BKN015
     FM040000 15009KT 1/4SM FG OVC008=



000
FTUS44 KLIX 031600 AAA
TAFMSY
TAF AMD
KMSY 031605Z 0316/0412 16007KT P6SM SCT010 BKN015 BKN022
     FM031800 16010KT P6SM BKN025
     FM040000 16008KT 3SM BR BKN015
     FM040400 16006KT 1/4SM FG BKN008=



000
FTUS44 KLIX 031600 AAA
TAFNEW
TAF AMD
KNEW 031602Z 0316/0412 15010KT P6SM SCT009 BKN030
     FM031800 16010KT P6SM BKN035
     FM040000 16009KT 1/4SM FG BKN015=



000
FTUS44 KLIX 031600 AAA
TAFNEW
TAF AMD
KNEW 031602Z 0316/0412 15010KT P6SM SCT009 BKN030
     FM031800 16010KT P6SM BKN035
     FM040000 16009KT 1/4SM FG BKN015=



000
FTUS44 KLIX 031100
TAFNEW
TAF
KNEW 031120Z 0312/0412 15006KT 1/4SM FG OVC002
     FM031600 16009KT P6SM BKN008
     FM031800 16010KT P6SM BKN015
     FM040000 16009KT 1/4SM FG BKN015=



000
FTUS44 KLIX 031100
TAFNEW
TAF
KNEW 031120Z 0312/0412 15006KT 1/4SM FG OVC002
     FM031600 16009KT P6SM BKN008
     FM031800 16010KT P6SM BKN015
     FM040000 16009KT 1/4SM FG BKN015=



000
FTUS44 KLIX 031100
TAFMSY
TAF
KMSY 031120Z 0312/0412 15005KT 1/4SM FG BKN003
     FM031600 16009KT P6SM BKN008
     FM031800 16010KT P6SM BKN015
     FM032000 16010KT P6SM BKN025
     FM040000 16008KT 3SM BR BKN015
     FM040400 16006KT 1/4SM FG BKN008=



000
FTUS44 KLIX 031100
TAFGPT
TAF
KGPT 031120Z 0312/0412 16006KT 1/4SM FG OVC003
     FM031600 16008KT P6SM BKN003
     FM031900 16009KT P6SM BKN008
     FM032100 15009KT P6SM BKN015
     FM040000 15009KT 1/4SM FG OVC008=



000
FTUS44 KLIX 031100
TAFBTR
TAF
KBTR 031120Z 0312/0412 00000KT 1/4SM FG OVC003
     FM031600 16007KT P6SM OVC003
     FM031900 17009KT P6SM BKN008
     FM032100 18008KT P6SM BKN025
     FM040000 18006KT 3SM BR BKN015
     FM040300 17005KT 3SM BR OVC003=



000
FTUS44 KLIX 031100
TAFMCB
TAF
KMCB 031120Z 0312/0412 00000KT 1/4SM FG OVC003
     FM031600 18006KT P6SM OVC003
     FM031900 18007KT P6SM BKN008
     FM032100 17006KT P6SM BKN025
     FM040300 17005KT 4SM BR OVC003
     FM040400 17005KT 1/4SM FG BKN001=



000
FTUS44 KLIX 030800 AAB
TAFGPT
TAF AMD
KGPT 030857Z 0309/0406 14004KT 1/4SM FG OVC002
     FM031500 15008KT P6SM BKN008
     FM032000 16010KT P6SM BKN015
     FM040000 15010KT 1/2SM FG BKN010=



000
FTUS44 KLIX 030700 AAB
TAFMCB
TAF AMD
KMCB 030734Z 0308/0406 VRB03KT 1/4SM FG OVC003
     FM031600 17008KT P6SM OVC008
     FM031800 18008KT P6SM BKN015
     FM032100 18008KT P6SM BKN025
     FM040000 18008KT 3SM BR BKN020
     FM040300 18008KT 1/2SM FG OVC003=



000
FTUS44 KLIX 030700 AAB
TAFMCB
TAF AMD
KMCB 030734Z 0308/0406 VRB03KT 1/4SM FG OVC003
     FM031600 17008KT P6SM OVC008
     FM031800 18008KT P6SM BKN015
     FM032100 18008KT P6SM BKN025
     FM040000 18008KT 3SM BR BKN020
     FM040300 18008KT 1/2SM FG OVC003=



000
FTUS44 KLIX 030700 AAA
TAFGPT
TAF AMD
KGPT 030729Z 0307/0406 14004KT 1SM BR OVC003
     FM031500 15008KT P6SM BKN008
     FM032000 16010KT P6SM BKN015
     FM040000 15010KT 1/2SM FG BKN010=



000
FTUS44 KLIX 030700 AAA
TAFGPT
TAF AMD
KGPT 030729Z 0307/0406 14004KT 1SM BR OVC003
     FM031500 15008KT P6SM BKN008
     FM032000 16010KT P6SM BKN015
     FM040000 15010KT 1/2SM FG BKN010=



000
FTUS44 KLIX 030700 AAA
TAFMCB
TAF AMD
KMCB 030728Z 0307/0406 VRB03KT 3/4SM BR OVC003
     FM031600 17008KT P6SM OVC008
     FM031800 18008KT P6SM BKN015
     FM032100 18008KT P6SM BKN025
     FM040000 18008KT 3SM BR BKN020
     FM040300 18008KT 1/2SM FG OVC003=



000
FTUS44 KLIX 030700 AAA
TAFMCB
TAF AMD
KMCB 030728Z 0307/0406 VRB03KT 3/4SM BR OVC003
     FM031600 17008KT P6SM OVC008
     FM031800 18008KT P6SM BKN015
     FM032100 18008KT P6SM BKN025
     FM040000 18008KT 3SM BR BKN020
     FM040300 18008KT 1/2SM FG OVC003=



000
FTUS44 KLIX 030500
TAFGPT
TAF
KGPT 030527Z 0306/0406 14004KT 1/4SM FG OVC003
     FM031500 15008KT P6SM BKN008
     FM032000 16010KT P6SM BKN015
     FM040000 15010KT 1/2SM FG BKN010=



000
FTUS44 KLIX 030500
TAFNEW
TAF
KNEW 030527Z 0306/0406 14005KT 1/4SM FG OVC003
     FM031500 15009KT P6SM BKN008
     FM031800 16010KT P6SM BKN015
     FM032100 16011KT P6SM BKN025
     FM040000 16011KT 5SM BR BKN020
     FM040400 16010KT 1/2SM FG BKN010=



000
FTUS44 KLIX 030500
TAFMCB
TAF
KMCB 030527Z 0306/0406 VRB03KT 1/4SM FG OVC003
     FM031600 17008KT P6SM OVC008
     FM031800 18008KT P6SM BKN015
     FM032100 18008KT P6SM BKN025
     FM040000 18008KT 3SM BR BKN020
     FM040300 18008KT 1/2SM FG OVC003=



000
FTUS44 KLIX 030500
TAFBTR
TAF
KBTR 030527Z 0306/0406 00000KT 1/4SM FG OVC003
     FM031600 16008KT P6SM OVC008
     FM031800 17009KT P6SM BKN015
     FM032100 18009KT P6SM BKN025
     FM040000 18008KT 2SM BR BKN020
     FM040300 18008KT 1/2SM FG OVC003=



000
FTUS44 KLIX 030500
TAFMSY
TAF
KMSY 030527Z 0306/0406 14005KT 1/4SM FG OVC003
     FM031500 15009KT P6SM BKN008
     FM031800 16011KT P6SM BKN015
     FM032100 17011KT P6SM BKN025
     FM040000 17010KT 5SM BR BKN020
     FM040300 17008KT 1/2SM FG OVC008=



000
FTUS44 KLIX 030500
TAFNEW
TAF
KNEW 030527Z 0306/0406 14005KT 1/4SM FG OVC003
     FM031500 15009KT P6SM BKN008
     FM031800 16010KT P6SM BKN015
     FM032100 16011KT P6SM BKN025
     FM040000 16011KT 5SM BR BKN020
     FM040400 16010KT 1/2SM FG BKN010=



000
FTUS44 KLIX 030500
TAFNEW
TAF
KNEW 030527Z 0306/0406 14005KT 1/4SM FG OVC003
     FM031500 15009KT P6SM BKN008
     FM031800 16010KT P6SM BKN015
     FM032100 16011KT P6SM BKN025
     FM040000 16011KT 5SM BR BKN020
     FM040400 16010KT 1/2SM FG BKN010=



000
FTUS44 KLIX 030500
TAFGPT
TAF
KGPT 030527Z 0306/0406 14004KT 1/4SM FG OVC003
     FM031500 15008KT P6SM BKN008
     FM032000 16010KT P6SM BKN015
     FM040000 15010KT 1/2SM FG BKN010=



000
FTUS44 KLIX 030500
TAFMSY
TAF
KMSY 030527Z 0306/0406 14005KT 1/4SM FG OVC003
     FM031500 15009KT P6SM BKN008
     FM031800 16011KT P6SM BKN015
     FM032100 17011KT P6SM BKN025
     FM040000 17010KT 5SM BR BKN020
     FM040300 17008KT 1/2SM FG OVC008=



000
FTUS44 KLIX 030500
TAFBTR
TAF
KBTR 030527Z 0306/0406 00000KT 1/4SM FG OVC003
     FM031600 16008KT P6SM OVC008
     FM031800 17009KT P6SM BKN015
     FM032100 18009KT P6SM BKN025
     FM040000 18008KT 2SM BR BKN020
     FM040300 18008KT 1/2SM FG OVC003=



000
FTUS44 KLIX 030500
TAFMCB
TAF
KMCB 030527Z 0306/0406 VRB03KT 1/4SM FG OVC003
     FM031600 17008KT P6SM OVC008
     FM031800 18008KT P6SM BKN015
     FM032100 18008KT P6SM BKN025
     FM040000 18008KT 3SM BR BKN020
     FM040300 18008KT 1/2SM FG OVC003=



000
FTUS44 KLIX 030400 AAB
TAFMSY
TAF AMD
KMSY 030431Z 0305/0324 09005KT 2SM BR OVC002
     FM031500 15009KT 3SM BR BKN003
     FM031800 16011KT P6SM BKN008
     FM032100 17011KT P6SM BKN015=



000
FTUS44 KLIX 030400 AAA
TAFNEW
TAF AMD
KNEW 030430Z 0305/0324 14006KT 5SM BR SCT005 BKN025 OVC050
     FM030800 10006KT 1/4SM FG OVC002
     FM031500 15009KT 3SM BR BKN003
     FM031800 16010KT P6SM BKN008
     FM032100 16011KT P6SM BKN015=



000
FTUS44 KLIX 030400 AAA
TAFNEW
TAF AMD
KNEW 030430Z 0305/0324 14006KT 5SM BR SCT005 BKN025 OVC050
     FM030800 10006KT 1/4SM FG OVC002
     FM031500 15009KT 3SM BR BKN003
     FM031800 16010KT P6SM BKN008
     FM032100 16011KT P6SM BKN015=



000
FTUS44 KLIX 030400 AAA
TAFMSY
TAF AMD
KMSY 030428Z 0304/0324 09005KT 4SM BR OVC004
     FM031500 15009KT 3SM BR BKN003
     FM031800 16011KT P6SM BKN008
     FM032100 17011KT P6SM BKN015=



000
FTUS44 KLIX 030200 AAA
TAFBTR
TAF AMD
KBTR 030242Z 0303/0324 00000KT 1/4SM FG VV002
     FM031200 14006KT 1/4SM FG OVC003
     FM031500 15007KT 3SM BR OVC003
     FM031800 15008KT P6SM OVC004
     FM032100 18009KT P6SM BKN015=



000
FTUS44 KLIX 030200 AAA
TAFBTR
TAF AMD
KBTR 030242Z 0303/0324 00000KT 1/4SM FG VV002
     FM031200 14006KT 1/4SM FG OVC003
     FM031500 15007KT 3SM BR OVC003
     FM031800 15008KT P6SM OVC004
     FM032100 18009KT P6SM BKN015=



000
FTUS44 KLIX 022300
TAFNEW
TAF
KNEW 022332Z 0300/0324 08008KT 6SM BR SCT008 BKN025
      TEMPO 0300/0303 2SM BR BKN008
     FM030300 10006KT 1/4SM FG OVC002
     FM031500 15009KT 3SM BR BKN003
     FM031800 16010KT P6SM BKN008
     FM032100 16011KT P6SM BKN015=



000
FTUS44 KLIX 022300
TAFNEW
TAF
KNEW 022332Z 0300/0324 08008KT 6SM BR SCT008 BKN025
      TEMPO 0300/0303 2SM BR BKN008
     FM030300 10006KT 1/4SM FG OVC002
     FM031500 15009KT 3SM BR BKN003
     FM031800 16010KT P6SM BKN008
     FM032100 16011KT P6SM BKN015=



000
FTUS44 KLIX 022300
TAFMCB
TAF
KMCB 022332Z 0300/0324 00000KT P6SM OVC005
      TEMPO 0300/0303 3SM BR
     FM030300 00000KT 1 1/2SM BR OVC004
     FM030600 VRB03KT 1/4SM FG OVC003
     FM031400 17007KT 1/4SM FG OVC003
     FM031500 17007KT P6SM OVC003
     FM032100 18008KT P6SM BKN008=



000
FTUS44 KLIX 022300
TAFGPT
TAF
KGPT 022332Z 0300/0324 12005KT 1/4SM FG VV002
      TEMPO 0300/0304 1/2SM FG
     FM031500 14007KT 3SM BR BKN003
     FM031800 15008KT P6SM BKN008
     FM032100 15010KT P6SM BKN008=



000
FTUS44 KLIX 022300
TAFMSY
TAF
KMSY 022332Z 0300/0324 08005KT 6SM BR SCT008 BKN025
      TEMPO 0300/0303 3SM BR BKN008
     FM030300 09005KT 1/4SM FG OVC002
     FM031500 15009KT 3SM BR BKN003
     FM031800 16011KT P6SM BKN008
     FM032100 17011KT P6SM BKN015=



000
FTUS44 KLIX 022300
TAFBTR
TAF
KBTR 022332Z 0300/0324 00000KT 6SM BR BKN003
      TEMPO 0300/0303 3SM BR
     FM030300 00000KT 1 1/2SM BR OVC002
     FM030600 00000KT 1/4SM FG OVC001
     FM031200 14006KT 1/4SM FG OVC003
     FM031500 15008KT P6SM OVC003
     FM032100 18009KT P6SM BKN015=



000
FTUS44 KLIX 022100 AAA
TAFGPT
TAF AMD
KGPT 022157Z 0222/0318 14003KT 1/2SM FG VV002
     FM030200 16003KT 1/4SM FG OVC002
     FM031600 16009KT P6SM BKN003=



000
FTUS44 KLIX 022100 AAA
TAFGPT
TAF AMD
KGPT 022157Z 0222/0318 14003KT 1/2SM FG VV002
     FM030200 16003KT 1/4SM FG OVC002
     FM031600 16009KT P6SM BKN003=



000
FTUS44 KLIX 021700
TAFNEW
TAF
KNEW 021738Z 0218/0318 20009KT P6SM BKN015
     FM030500 14005KT 4SM BR OVC003
     FM031700 16011KT P6SM BKN003=



000
FTUS44 KLIX 021700
TAFNEW
TAF
KNEW 021738Z 0218/0318 20009KT P6SM BKN015
     FM030500 14005KT 4SM BR OVC003
     FM031700 16011KT P6SM BKN003=



000
FTUS44 KLIX 021700
TAFBTR
TAF
KBTR 021738Z 0218/0318 09003KT 1SM BR OVC002
      TEMPO 0218/0220 1/2SM FG OVC002
     FM030600 10003KT 2SM BR OVC004
     FM031600 16005KT P6SM OVC008=



000
FTUS44 KLIX 021700
TAFNEW
TAF
KNEW 021738Z 0218/0318 20009KT P6SM BKN015
     FM030500 14005KT 4SM BR OVC003
     FM031700 16011KT P6SM BKN003=



000
FTUS44 KLIX 021700
TAFNEW
TAF
KNEW 021738Z 0218/0318 20009KT P6SM BKN015
     FM030500 14005KT 4SM BR OVC003
     FM031700 16011KT P6SM BKN003=



000
FTUS44 KLIX 021700
TAFMSY
TAF
KMSY 021738Z 0218/0318 19008KT P6SM OVC010
     FM030300 12007KT 1SM BR BKN003
     FM031700 16011KT P6SM BKN003=



000
FTUS44 KLIX 021700
TAFGPT
TAF
KGPT 021738Z 0218/0318 12006KT 1SM BR OVC003
      TEMPO 0218/0222 1/4SM FG VV002
     FM030200 16003KT 1/4SM FG OVC002
     FM031600 16009KT P6SM BKN003=



000
FTUS44 KLIX 021700
TAFMCB
TAF
KMCB 021738Z 0218/0318 00000KT 4SM BR VCSH OVC002
      TEMPO 0218/0222 2SM BR OVC002
     FM030300 VRB03KT 2SM BR OVC004
     FM031600 17005KT P6SM OVC008=



000
FTUS44 KLIX 021700
TAFBTR
TAF
KBTR 021738Z 0218/0318 09003KT 1SM BR OVC002
      TEMPO 0218/0220 1/2SM FG OVC002
     FM030600 10003KT 2SM BR OVC004
     FM031600 16005KT P6SM OVC008=



000
FTUS44 KLIX 021700
TAFMCB
TAF
KMCB 021738Z 0218/0318 00000KT 4SM BR VCSH OVC002
      TEMPO 0218/0222 2SM BR OVC002
     FM030300 VRB03KT 2SM BR OVC004
     FM031600 17005KT P6SM OVC008=



000
FTUS44 KLIX 021700
TAFMSY
TAF
KMSY 021738Z 0218/0318 19008KT P6SM OVC010
     FM030300 12007KT 1SM BR BKN003
     FM031700 16011KT P6SM BKN003=



000
FTUS44 KLIX 021700
TAFGPT
TAF
KGPT 021738Z 0218/0318 12006KT 1SM BR OVC003
      TEMPO 0218/0222 1/4SM FG VV002
     FM030200 16003KT 1/4SM FG OVC002
     FM031600 16009KT P6SM BKN003=



000
FTUS44 KLIX 021300 AAD
TAFNEW
TAF AMD
KNEW 021355Z 0214/0312 11006KT 5SM BR BKN005 OVC015
     FM030000 12008KT 2SM BR BKN008
     FM030600 13006KT 1SM BR BKN003=



000
FTUS44 KLIX 021300 AAD
TAFNEW
TAF AMD
KNEW 021355Z 0214/0312 11006KT 5SM BR BKN005 OVC015
     FM030000 12008KT 2SM BR BKN008
     FM030600 13006KT 1SM BR BKN003=



000
FTUS44 KLIX 021300 AAC
TAFNEW
TAF AMD
KNEW 021334Z 0214/0312 11006KT 5SM BR SCT005 BKN015
     FM030000 12008KT 2SM BR BKN008
     FM030600 13006KT 1SM BR BKN003=



000
FTUS44 KLIX 021300 AAC
TAFNEW
TAF AMD
KNEW 021334Z 0214/0312 11006KT 5SM BR SCT005 BKN015
     FM030000 12008KT 2SM BR BKN008
     FM030600 13006KT 1SM BR BKN003=



000
FTUS44 KLIX 021300 AAC
TAFNEW
TAF AMD
KNEW 021334Z 0214/0312 11006KT 5SM BR SCT005 BKN015
     FM030000 12008KT 2SM BR BKN008
     FM030600 13006KT 1SM BR BKN003=



000
FTUS44 KLIX 021300 AAC
TAFNEW
TAF AMD
KNEW 021334Z 0214/0312 11006KT 5SM BR SCT005 BKN015
     FM030000 12008KT 2SM BR BKN008
     FM030600 13006KT 1SM BR BKN003=



000
FTUS44 KLIX 021300 AAA
TAFMSY
TAF AMD
KMSY 021333Z 0214/0312 13006KT P6SM BKN008
     FM030300 13007KT 1SM BR BKN008=



000
FTUS44 KLIX 021200 AAB
TAFNEW
TAF AMD
KNEW 021257Z 0213/0312 11006KT 3SM BR BKN003 OVC010
     FM021500 11006KT P6SM BKN008
     FM030000 12008KT 2SM BR BKN008
     FM030600 13006KT 1SM BR BKN003=



000
FTUS44 KLIX 021200 AAB
TAFNEW
TAF AMD
KNEW 021257Z 0213/0312 11006KT 3SM BR BKN003 OVC010
     FM021500 11006KT P6SM BKN008
     FM030000 12008KT 2SM BR BKN008
     FM030600 13006KT 1SM BR BKN003=



000
FTUS44 KLIX 021200 AAA
TAFGPT
TAF AMD
KGPT 021256Z 0213/0312 12005KT 1SM BR OVC001
     FM021500 13006KT P6SM OVC008
     FM030000 16005KT 2SM BR BKN008=



000
FTUS44 KLIX 021100 AAA
TAFNEW
TAF AMD
KNEW 021156Z 0212/0312 11006KT 1SM BR OVC002
     FM021500 11006KT P6SM BKN008
     FM030000 12008KT 2SM BR BKN008
     FM030600 13006KT 1SM BR BKN003=



000
FTUS44 KLIX 021100 AAA
TAFNEW
TAF AMD
KNEW 021156Z 0212/0312 11006KT 1SM BR OVC002
     FM021500 11006KT P6SM BKN008
     FM030000 12008KT 2SM BR BKN008
     FM030600 13006KT 1SM BR BKN003=



000
FTUS44 KLIX 021100
TAFBTR
TAF
KBTR 021120Z 0212/0312 10005KT 2SM BR OVC003
     FM021500 10006KT P6SM OVC008
     FM030300 10004KT 2SM BR BKN003=



000
FTUS44 KLIX 021100
TAFGPT
TAF
KGPT 021120Z 0212/0312 12005KT 1SM RA BR OVC003
     FM021500 13006KT P6SM OVC008
     FM030000 16005KT 2SM BR BKN008=



000
FTUS44 KLIX 021100
TAFNEW
TAF
KNEW 021120Z 0212/0312 11006KT 1SM BR OVC003
     FM021500 11006KT P6SM BKN008
     FM030000 12008KT 2SM BR BKN008
     FM030600 13006KT 1SM BR BKN003=



000
FTUS44 KLIX 021100
TAFBTR
TAF
KBTR 021120Z 0212/0312 10005KT 2SM BR OVC003
     FM021500 10006KT P6SM OVC008
     FM030300 10004KT 2SM BR BKN003=



000
FTUS44 KLIX 021100
TAFGPT
TAF
KGPT 021120Z 0212/0312 12005KT 1SM RA BR OVC003
     FM021500 13006KT P6SM OVC008
     FM030000 16005KT 2SM BR BKN008=



000
FTUS44 KLIX 021100
TAFNEW
TAF
KNEW 021120Z 0212/0312 11006KT 1SM BR OVC003
     FM021500 11006KT P6SM BKN008
     FM030000 12008KT 2SM BR BKN008
     FM030600 13006KT 1SM BR BKN003=



000
FTUS44 KLIX 021100
TAFMSY
TAF
KMSY 021120Z 0212/0312 10005KT P6SM OVC003
     FM021500 11006KT P6SM BKN008
     FM030300 13007KT 1SM BR BKN008=



000
FTUS44 KLIX 021100
TAFMCB
TAF
KMCB 021120Z 0212/0312 VRB03KT 2SM BR OVC003
     FM021500 00000KT P6SM OVC008
     FM030300 VRB03KT P6SM OVC003=



000
FTUS44 KLIX 021100
TAFNEW
TAF
KNEW 021120Z 0212/0312 11006KT 1SM BR OVC003
     FM021500 11006KT P6SM BKN008
     FM030000 12008KT 2SM BR BKN008
     FM030600 13006KT 1SM BR BKN003=



000
FTUS44 KLIX 021100
TAFNEW
TAF
KNEW 021120Z 0212/0312 11006KT 1SM BR OVC003
     FM021500 11006KT P6SM BKN008
     FM030000 12008KT 2SM BR BKN008
     FM030600 13006KT 1SM BR BKN003=



000
FTUS44 KLIX 021100
TAFMCB
TAF
KMCB 021120Z 0212/0312 VRB03KT 2SM BR OVC003
     FM021500 00000KT P6SM OVC008
     FM030300 VRB03KT P6SM OVC003=



000
FTUS44 KLIX 021100
TAFMSY
TAF
KMSY 021120Z 0212/0312 10005KT P6SM OVC003
     FM021500 11006KT P6SM BKN008
     FM030300 13007KT 1SM BR BKN008=



000
FTUS44 KLIX 020900 AAB
TAFMCB
TAF AMD
KMCB 020942Z 0210/0306 00000KT 1SM BR OVC003
     FM021500 VRB03KT 2SM BR OVC003
     FM021800 12004KT 5SM BR OVC005=



000
FTUS44 KLIX 020900 AAB
TAFMCB
TAF AMD
KMCB 020942Z 0210/0306 00000KT 1SM BR OVC003
     FM021500 VRB03KT 2SM BR OVC003
     FM021800 12004KT 5SM BR OVC005=



000
FTUS44 KLIX 020800 AAA
TAFGPT
TAF AMD
KGPT 020819Z 0208/0306 12012G22KT 5SM -RA BR OVC004
     FM021500 13004KT 2SM BR OVC003
     FM021800 14005KT 5SM BR BKN005
     FM022100 16005KT P6SM BKN008=



000
FTUS44 KLIX 020800 AAB
TAFNEW
TAF AMD
KNEW 020818Z 0208/0306 11014KT 5SM -RA BR BKN005 OVC020
     FM021500 11004KT P6SM BKN008
     FM021600 12005KT P6SM BKN015
     FM030000 13007KT 1SM BR BKN020=



000
FTUS44 KLIX 020800 AAB
TAFNEW
TAF AMD
KNEW 020818Z 0208/0306 11014KT 5SM -RA BR BKN005 OVC020
     FM021500 11004KT P6SM BKN008
     FM021600 12005KT P6SM BKN015
     FM030000 13007KT 1SM BR BKN020=



000
FTUS44 KLIX 020800 AAA
TAFBTR
TAF AMD
KBTR 020808Z 0208/0306 07008KT 5SM BR BKN005 OVC020
     FM020900 13005KT 3SM BR BKN005 OVC020
     FM021500 12005KT 2SM BR OVC003
     FM021800 13005KT 5SM BR OVC005=



000
FTUS44 KLIX 020800 AAB
TAFMSY
TAF AMD
KMSY 020807Z 0208/0306 09004KT 5SM -RA BR BKN005 OVC010
     FM021500 12004KT 2SM BR OVC003
     FM021800 12004KT 5SM BR BKN008=



000
FTUS44 KLIX 020700 AAA
TAFMSY
TAF AMD
KMSY 020719Z 0207/0306 12010KT 5SM -RA BR OVC005
      TEMPO 0207/0208 2SM TSRA BR BKN010CB BKN040
     FM020800 09004KT 1SM BR OVC003
     FM021500 12004KT 2SM BR OVC003
     FM021800 12004KT 5SM BR BKN008=



000
FTUS44 KLIX 020700 AAA
TAFMCB
TAF AMD
KMCB 020719Z 0207/0306 15004KT P6SM BKN005 OVC015
     FM021000 00000KT 1/2SM FG OVC003
     FM021500 VRB03KT 2SM BR OVC003
     FM021800 12004KT 5SM BR OVC005=



000
FTUS44 KLIX 020700 AAA
TAFNEW
TAF AMD
KNEW 020717Z 0207/0306 08014KT 5SM -RA BR SCT005 BKN020 OVC050
      TEMPO 0207/0209 2SM RA BR SCT002 BKN008 OVC020
     FM021500 11004KT P6SM BKN008
     FM021600 12005KT P6SM BKN015
     FM030000 13007KT 1SM BR BKN020=



000
FTUS44 KLIX 020700 AAA
TAFNEW
TAF AMD
KNEW 020717Z 0207/0306 08014KT 5SM -RA BR SCT005 BKN020 OVC050
      TEMPO 0207/0209 2SM RA BR SCT002 BKN008 OVC020
     FM021500 11004KT P6SM BKN008
     FM021600 12005KT P6SM BKN015
     FM030000 13007KT 1SM BR BKN020=



000
FTUS44 KLIX 020500 RRA
TAFNEW
TAF
KNEW 020540Z 0206/0306 08014KT 1SM BR VV002
      TEMPO 0206/0209 2SM RA BR SCT002 BKN008 OVC020
     FM021500 11004KT P6SM BKN008
     FM021600 12005KT P6SM BKN015
     FM030000 13007KT 1SM BR BKN020=



000
FTUS44 KLIX 020500 RRA
TAFBTR
TAF
KBTR 020540Z 0206/0306 07008KT 5SM BR BKN020 BKN035 OVC045
      TEMPO 0206/0209 1SM BR BKN005 OVC030
     FM020900 13005KT 1/2SM FG OVC003
     FM021500 12005KT 2SM BR OVC003
     FM021800 13005KT 5SM BR OVC005=



000
FTUS44 KLIX 020500 RRA
TAFMSY
TAF
KMSY 020540Z 0206/0306 08011G19KT 1SM BR OVC002
      TEMPO 0206/0208 2SM TSRA BR BKN010CB BKN040
     FM020800 09004KT 1/4SM FG OVC003
     FM021500 12004KT 2SM BR OVC003
     FM021800 12004KT 5SM BR BKN008=



000
FTUS44 KLIX 020500 RRA
TAFGPT
TAF
KGPT 020540Z 0206/0306 04008KT 3SM -RA BR OVC004
      TEMPO 0206/0209 2SM RA BR BKN008 OVC020
     FM020900 12004KT 1/4SM FG OVC003
     FM021500 13004KT 2SM BR OVC003
     FM021800 14005KT 5SM BR BKN005
     FM022100 16005KT P6SM BKN008=



000
FTUS44 KLIX 020500 RRA
TAFNEW
TAF
KNEW 020540Z 0206/0306 08014KT 1SM BR VV002
      TEMPO 0206/0209 2SM RA BR SCT002 BKN008 OVC020
     FM021500 11004KT P6SM BKN008
     FM021600 12005KT P6SM BKN015
     FM030000 13007KT 1SM BR BKN020=



000
FTUS44 KLIX 020500 RRA
TAFMCB
TAF
KMCB 020540Z 0206/0306 00000KT 5SM -RA BR BKN008 BKN070 OVC110
      TEMPO 0206/0208 1SM BR SCT002 BKN004
     FM020800 00000KT 1/2SM FG OVC003
     FM021500 VRB03KT 2SM BR OVC003
     FM021800 12004KT 5SM BR OVC005=



000
FTUS44 KLIX 020500 RRA
TAFMCB
TAF
KMCB 020540Z 0206/0306 00000KT 5SM -RA BR BKN008 BKN070 OVC110
      TEMPO 0206/0208 1SM BR SCT002 BKN004
     FM020800 00000KT 1/2SM FG OVC003
     FM021500 VRB03KT 2SM BR OVC003
     FM021800 12004KT 5SM BR OVC005=



000
FTUS44 KLIX 020500 RRA
TAFNEW
TAF
KNEW 020540Z 0206/0306 08014KT 1SM BR VV002
      TEMPO 0206/0209 2SM RA BR SCT002 BKN008 OVC020
     FM021500 11004KT P6SM BKN008
     FM021600 12005KT P6SM BKN015
     FM030000 13007KT 1SM BR BKN020=



000
FTUS44 KLIX 020500 RRA
TAFMSY
TAF
KMSY 020540Z 0206/0306 08011G19KT 1SM BR OVC002
      TEMPO 0206/0208 2SM TSRA BR BKN010CB BKN040
     FM020800 09004KT 1/4SM FG OVC003
     FM021500 12004KT 2SM BR OVC003
     FM021800 12004KT 5SM BR BKN008=



000
FTUS44 KLIX 020500 RRA
TAFGPT
TAF
KGPT 020540Z 0206/0306 04008KT 3SM -RA BR OVC004
      TEMPO 0206/0209 2SM RA BR BKN008 OVC020
     FM020900 12004KT 1/4SM FG OVC003
     FM021500 13004KT 2SM BR OVC003
     FM021800 14005KT 5SM BR BKN005
     FM022100 16005KT P6SM BKN008=



000
FTUS44 KLIX 020500 RRA
TAFBTR
TAF
KBTR 020540Z 0206/0306 07008KT 5SM BR BKN020 BKN035 OVC045
      TEMPO 0206/0209 1SM BR BKN005 OVC030
     FM020900 13005KT 1/2SM FG OVC003
     FM021500 12005KT 2SM BR OVC003
     FM021800 13005KT 5SM BR OVC005=



000
FTUS44 KLIX 020400 AAC
TAFMSY
TAF AMD
KMSY 020417Z 0204/0224 09011KT 1 1/2SM -RA BR OVC002
      TEMPO 0204/0207 2SM TSRA BR BKN010CB BKN040
     FM020700 09004KT 1/4SM FG OVC003
     FM021500 12004KT 2SM BR OVC003
     FM021800 12004KT 5SM BR BKN008=



000
FTUS44 KLIX 020400 AAC
TAFMSY
TAF AMD
KMSY 020417Z 0204/0224 09011KT 1 1/2SM -RA BR OVC002
      TEMPO 0204/0207 2SM TSRA BR BKN010CB BKN040
     FM020700 09004KT 1/4SM FG OVC003
     FM021500 12004KT 2SM BR OVC003
     FM021800 12004KT 5SM BR BKN008=



000
FTUS44 KLIX 020400 AAB
TAFBTR
TAF AMD
KBTR 020414Z 0204/0224 06010KT 6SM -RA BR SCT040 BKN045 OVC060
      TEMPO 0205/0206 1SM BR BKN006 OVC040
     FM020600 13005KT 1/2SM FG OVC003
     FM021500 12005KT 2SM BR OVC003
     FM021800 13005KT 5SM BR OVC005=



000
FTUS44 KLIX 020400 AAB
TAFBTR
TAF AMD
KBTR 020414Z 0204/0224 06010KT 6SM -RA BR SCT040 BKN045 OVC060
      TEMPO 0205/0206 1SM BR BKN006 OVC040
     FM020600 13005KT 1/2SM FG OVC003
     FM021500 12005KT 2SM BR OVC003
     FM021800 13005KT 5SM BR OVC005=



000
FTUS44 KLIX 020400 AAB
TAFNEW
TAF AMD
KNEW 020412Z 0204/0224 09009KT 3/4SM BR VV002
      TEMPO 0204/0207 2SM TSRA BR BKN006CB
     FM020900 09004KT 1/4SM FG OVC003
     FM021500 11004KT 1 1/2SM BR OVC003
     FM021900 11005KT 4SM BR BKN008=



000
FTUS44 KLIX 020400 AAB
TAFNEW
TAF AMD
KNEW 020412Z 0204/0224 09009KT 3/4SM BR VV002
      TEMPO 0204/0207 2SM TSRA BR BKN006CB
     FM020900 09004KT 1/4SM FG OVC003
     FM021500 11004KT 1 1/2SM BR OVC003
     FM021900 11005KT 4SM BR BKN008=



000
FTUS44 KLIX 020300 AAB
TAFMSY
TAF AMD
KMSY 020304Z 0203/0224 08008KT 2SM BR OVC003
     FM020600 09004KT 1/4SM FG OVC003
     FM021500 12004KT 2SM BR OVC003
     FM021800 12004KT 5SM BR BKN008=



000
FTUS44 KLIX 020300 AAB
TAFMSY
TAF AMD
KMSY 020304Z 0203/0224 08008KT 2SM BR OVC003
     FM020600 09004KT 1/4SM FG OVC003
     FM021500 12004KT 2SM BR OVC003
     FM021800 12004KT 5SM BR BKN008=



000
FTUS44 KLIX 020100 AAA
TAFMSY
TAF AMD
KMSY 020133Z 0202/0224 10010KT 2SM BR SCT003 BKN005
      TEMPO 0202/0203 1SM BR OVC003
     FM020300 11008KT 1SM BR BKN004
     FM020600 09004KT 1/4SM FG OVC003
     FM021500 12004KT 2SM BR OVC003
     FM021800 12004KT 5SM BR BKN008=



000
FTUS44 KLIX 020100 AAA
TAFBTR
TAF AMD
KBTR 020132Z 0202/0224 10007KT 2SM +TSRA BR OVC005CB
      TEMPO 0202/0203 4SM -RA BR BKN002
     FM020300 12006KT 1SM BR BKN005
     FM020600 13005KT 1/2SM FG OVC003
     FM021500 12005KT 2SM BR OVC003
     FM021800 13005KT 5SM BR OVC005=



000
FTUS44 KLIX 020100 AAA
TAFNEW
TAF AMD
KNEW 020123Z 0201/0224 10011KT 3/4SM BR VV002
     FM020300 11008KT 1/2SM FG OVC002
     FM020900 09004KT 1/4SM FG OVC003
     FM021500 11004KT 1 1/2SM BR OVC003
     FM021900 11005KT 4SM BR BKN008=



000
FTUS44 KLIX 020100 AAA
TAFNEW
TAF AMD
KNEW 020123Z 0201/0224 10011KT 3/4SM BR VV002
     FM020300 11008KT 1/2SM FG OVC002
     FM020900 09004KT 1/4SM FG OVC003
     FM021500 11004KT 1 1/2SM BR OVC003
     FM021900 11005KT 4SM BR BKN008=



    US Dept of Commerce
    National Oceanic and Atmospheric Administration
    National Weather Service
    1325 East West Highway
    Silver Spring, MD 20910
    Page Author: NWS Internet Services Team
Disclaimer
Information Quality
Credits
Glossary
Privacy Policy
Freedom of Information Act (FOIA)
About Us
Career Opportunities